Airfield :
LOGIN :

Register | Disclaimer

   EN    FR    IT 

 










Legend :    VFR   Marginal VFR   IFR   Intensive IFR   Very Intensive IFR
Visi :
Ceiling :
>= 8 km
>= 3000ft
5 to 8 km
1000 to 3000 ft
1500m to 5 km
500 to 1000 ft
800 to 1500m
200 to 500 ft
< 800m
< 200 ft
Symbols :   Thunderstorms  Fog  Heavy snow  Heavy precipitations  Wind > 20 kt
SIGMETs :     Misc.  Thunderstorms  Icing  Turbulence  Mountain Waves  Volcanic Ashes







- Airport Elevation : 495 ft
- IATA code : BUD


LHBP - Budapest Ferihegy

CURRENT METAR :
  • 141500Z VRB02KT CAVOK 04/03 Q1006 NOSIG

EXPIRED METARs :
  • 141430Z VRB01KT CAVOK 05/03 Q1006 NOSIG
  • 141400Z VRB03KT CAVOK 05/03 Q1006 NOSIG
  • 141330Z 00000KT CAVOK 04/03 Q1006 NOSIG
  • 141300Z VRB02KT CAVOK 04/04 Q1006 NOSIG
  • 141230Z 18004KT 140V220 8000 NSC 04/04 Q1006 NOSIG

TAF TAF LHBP
Valid from the 14 at 12:00 until the 15 at 12:00 UTC


141115Z 1412/1512 18006KT 8000 NSC
TEMPO 1412/1417 -RA
BECMG 1416/1418 11004KT
BECMG 1419/1421 SCT040 SCT065
TEMPO 1421/1505 3000 -RA -SHRA BR BKN005 BKN023 BKN060
TEMPO 1505/1512 4500 RA SHRA BR BKN008 BKN020TCU BKN060
BECMG 1507/1509 20010KT
No reported NOTAMs for that airfield.



MET'MAP, your aeronautical weather chart ! - Copyright ORBIFLY December 2007 - Disclaimer

ORBIFLY MET'MAP TEAM :

Programming & Development : Alexandra Zaïnal
Concept & Development : Baudouin d'Aumeries
Co-Development & Prog : Marc-Olivier Méhu
Technical & hardware support : Manuel Goepfert

Contact : metmap@orbifly.com




SOURCES & CREDITS :

   NOAA